Terminal Aerodrome Forecast
Issued by NWS

Home | Current Version | Previous Version | Text Only | Print | Product List | Glossary On
Versions: 1 2 3 4 5 6 7 8 9 10 11 12 13 14 15 16
834
FTUS44 KLUB 300755 AAA
TAFCDS
TAF AMD
KCDS 300755Z 3008/3106 12006KT P6SM SCT060
      TEMPO 3008/3010 33015G25KT 5SM TSRA BKN060CB=

USA.gov is the U.S. government's official web portal to all federal, state and local government web resources and services.